createdAt,value
2018-08-17T00:00:31.150Z,22.80
2018-08-17T00:03:00.008Z,22.80
2018-08-17T00:05:28.946Z,22.80
2018-08-17T00:07:57.720Z,22.80
2018-08-17T00:10:26.806Z,22.80
2018-08-17T00:15:23.963Z,22.70
2018-08-17T00:17:52.874Z,22.70
2018-08-17T00:20:21.695Z,22.70
2018-08-17T00:22:50.483Z,22.70
2018-08-17T00:25:19.301Z,22.80
2018-08-17T00:27:48.089Z,22.70
2018-08-17T00:30:16.866Z,22.70
2018-08-17T00:32:45.662Z,22.70
2018-08-17T00:35:14.454Z,22.70
2018-08-17T00:37:43.239Z,22.70
2018-08-17T00:40:12.282Z,22.60
2018-08-17T00:42:41.909Z,22.70
2018-08-17T00:45:10.851Z,22.70
2018-08-17T00:47:39.719Z,22.80
2018-08-17T00:50:08.557Z,22.90
2018-08-17T00:52:37.345Z,22.90
2018-08-17T00:55:06.478Z,22.90
2018-08-17T00:57:35.274Z,23.00
2018-08-17T01:00:04.522Z,23.00
2018-08-17T01:02:33.346Z,23.00
2018-08-17T01:05:02.124Z,23.00
2018-08-17T01:07:30.927Z,23.00
2018-08-17T01:10:00.609Z,23.00
2018-08-17T01:12:29.406Z,23.00
2018-08-17T01:14:58.209Z,23.00
2018-08-17T01:17:27.051Z,22.90
2018-08-17T01:19:55.886Z,22.90
2018-08-17T01:22:24.740Z,22.90
2018-08-17T01:24:53.738Z,23.00
2018-08-17T01:27:22.535Z,22.90
2018-08-17T01:29:51.327Z,22.90
2018-08-17T01:34:48.556Z,23.00
2018-08-17T01:39:45.926Z,23.00
2018-08-17T01:44:43.079Z,23.00
2018-08-17T01:47:12.082Z,23.00
2018-08-17T01:49:40.900Z,23.10
2018-08-17T01:52:09.717Z,23.10
2018-08-17T01:54:38.580Z,23.10
2018-08-17T01:57:07.402Z,23.10
2018-08-17T01:59:36.159Z,23.10
2018-08-17T02:02:05.278Z,23.10
2018-08-17T02:04:34.062Z,23.10
2018-08-17T02:07:02.857Z,23.00
2018-08-17T02:09:31.690Z,23.10
2018-08-17T02:12:00.498Z,22.90
2018-08-17T02:14:29.270Z,22.80
2018-08-17T02:16:58.305Z,22.80
2018-08-17T02:19:27.084Z,22.70
2018-08-17T02:21:55.859Z,22.50
2018-08-17T02:24:24.713Z,22.50
2018-08-17T02:26:53.460Z,22.40
2018-08-17T02:29:22.196Z,22.40
2018-08-17T02:31:51.009Z,22.40
2018-08-17T02:34:19.807Z,22.40
2018-08-17T02:39:17.027Z,22.40
2018-08-17T02:41:45.833Z,22.40
2018-08-17T02:44:14.622Z,22.40
2018-08-17T02:46:43.424Z,22.40
2018-08-17T02:49:12.208Z,22.40
2018-08-17T02:51:41.012Z,22.40
2018-08-17T02:54:09.849Z,22.50
2018-08-17T02:56:38.627Z,22.50
2018-08-17T02:59:07.428Z,22.50
2018-08-17T03:06:33.185Z,22.50
2018-08-17T03:09:02.269Z,22.50
2018-08-17T03:11:31.052Z,22.50
2018-08-17T03:13:59.809Z,22.40
2018-08-17T03:16:28.618Z,22.40
2018-08-17T03:18:57.378Z,22.40
2018-08-17T03:21:26.176Z,22.40
2018-08-17T03:23:55.000Z,22.40
2018-08-17T03:26:23.769Z,22.40
2018-08-17T03:28:52.585Z,22.40
2018-08-17T03:31:21.545Z,22.40
2018-08-17T03:33:50.305Z,22.40
2018-08-17T03:36:19.152Z,22.40
2018-08-17T03:41:16.479Z,22.40
2018-08-17T03:43:45.296Z,22.40
2018-08-17T03:46:14.213Z,22.30
2018-08-17T03:48:42.995Z,22.40
2018-08-17T03:51:11.758Z,22.40
2018-08-17T03:53:40.686Z,22.40
2018-08-17T03:56:09.518Z,22.50
2018-08-17T03:58:38.358Z,22.50
2018-08-17T04:03:35.546Z,22.40
2018-08-17T04:06:04.395Z,22.30
2018-08-17T04:08:33.523Z,22.30
2018-08-17T04:11:02.305Z,22.40
2018-08-17T04:13:31.131Z,22.40
2018-08-17T04:16:00.128Z,22.50
2018-08-17T04:18:28.957Z,22.60
2018-08-17T04:20:57.847Z,22.60
2018-08-17T04:23:26.659Z,22.60
2018-08-17T04:25:55.440Z,22.70
2018-08-17T04:28:24.227Z,22.60
2018-08-17T04:30:53.179Z,22.60
2018-08-17T04:33:21.991Z,22.60
2018-08-17T04:35:50.763Z,22.50
2018-08-17T04:38:19.709Z,22.50
2018-08-17T04:40:48.506Z,22.40
2018-08-17T04:45:45.650Z,22.40
2018-08-17T04:48:14.422Z,22.50
2018-08-17T04:50:43.180Z,22.60
2018-08-17T04:53:11.994Z,22.70
2018-08-17T04:55:40.802Z,22.70
2018-08-17T04:58:09.585Z,22.70
2018-08-17T05:00:38.449Z,22.70
2018-08-17T05:03:07.225Z,22.80
2018-08-17T05:05:36.014Z,22.80
2018-08-17T05:08:04.991Z,22.90
2018-08-17T05:10:33.774Z,23.00
2018-08-17T05:13:02.526Z,23.10
2018-08-17T05:15:31.585Z,23.20
2018-08-17T05:18:00.351Z,23.20
2018-08-17T05:20:29.137Z,23.50
2018-08-17T05:22:57.964Z,23.60
2018-08-17T05:25:26.735Z,23.80
2018-08-17T05:27:55.556Z,24.00
2018-08-17T05:30:24.336Z,24.10
2018-08-17T05:35:21.448Z,24.30
2018-08-17T05:37:50.471Z,24.50
2018-08-17T05:40:19.286Z,24.60
2018-08-17T05:42:48.046Z,24.50
2018-08-17T05:45:17.041Z,24.70
2018-08-17T05:47:45.914Z,24.80
2018-08-17T05:50:14.697Z,24.90
2018-08-17T05:52:44.089Z,25.00
2018-08-17T05:55:12.943Z,24.90
2018-08-17T05:57:41.729Z,25.10
2018-08-17T06:00:11.301Z,25.20
2018-08-17T06:02:40.143Z,25.40
2018-08-17T06:05:09.433Z,25.50
2018-08-17T06:07:38.392Z,25.60
2018-08-17T06:10:08.724Z,25.70
2018-08-17T06:12:37.474Z,25.80
2018-08-17T06:15:07.375Z,25.90
2018-08-17T06:17:36.293Z,25.90
2018-08-17T06:20:06.814Z,26.10
2018-08-17T06:22:35.642Z,26.20
2018-08-17T06:25:08.518Z,26.30
2018-08-17T06:27:37.567Z,26.40
2018-08-17T06:30:08.276Z,26.60
2018-08-17T06:32:37.166Z,26.90
2018-08-17T06:35:06.749Z,27.20
2018-08-17T06:37:35.555Z,27.70
2018-08-17T06:40:04.710Z,28.10
2018-08-17T06:42:33.855Z,28.50
2018-08-17T06:45:02.981Z,28.90
2018-08-17T06:47:32.083Z,29.30
2018-08-17T06:50:00.893Z,29.30
2018-08-17T06:52:29.691Z,30.30
2018-08-17T06:54:58.465Z,30.80
2018-08-17T06:57:27.274Z,31.20
2018-08-17T06:59:56.032Z,31.40
2018-08-17T07:02:24.841Z,31.90
2018-08-17T07:04:53.702Z,31.90
2018-08-17T07:07:22.559Z,32.60
2018-08-17T07:09:51.334Z,33.70
2018-08-17T07:12:20.239Z,33.60
2018-08-17T07:14:49.000Z,34.50
2018-08-17T07:17:17.772Z,34.50
2018-08-17T07:19:46.694Z,34.80
2018-08-17T07:22:15.541Z,35.60
2018-08-17T07:24:44.300Z,35.70
2018-08-17T07:27:13.137Z,38.00
2018-08-17T07:29:41.913Z,39.10
2018-08-17T07:32:10.662Z,39.20
2018-08-17T07:34:40.188Z,40.20
2018-08-17T07:37:08.999Z,40.70
2018-08-17T07:39:37.777Z,41.40
2018-08-17T07:42:06.585Z,42.10
2018-08-17T07:44:35.364Z,42.80
2018-08-17T07:47:04.221Z,43.50
2018-08-17T07:49:33.057Z,43.50
2018-08-17T07:52:02.705Z,44.10
2018-08-17T07:54:31.452Z,44.60
2018-08-17T07:57:00.288Z,45.40
2018-08-17T07:59:29.065Z,45.40
2018-08-17T08:01:57.858Z,45.70
2018-08-17T08:04:26.841Z,45.60
2018-08-17T08:06:55.699Z,45.90
2018-08-17T08:09:24.494Z,46.10
2018-08-17T08:11:53.333Z,46.30
2018-08-17T08:14:22.154Z,46.30
2018-08-17T08:16:50.938Z,47.10
2018-08-17T08:19:20.012Z,47.10
2018-08-17T08:21:50.426Z,47.70
2018-08-17T08:24:20.022Z,48.70
2018-08-17T08:26:50.827Z,48.60
2018-08-17T08:29:19.662Z,49.10
2018-08-17T08:31:48.434Z,49.40
2018-08-17T08:34:17.326Z,49.40
2018-08-17T08:36:46.152Z,49.90
2018-08-17T08:39:14.953Z,50.30
2018-08-17T08:41:44.117Z,50.70
2018-08-17T08:44:12.892Z,50.80
2018-08-17T08:46:41.688Z,50.80
2018-08-17T08:49:10.578Z,51.10
2018-08-17T08:51:39.370Z,51.40
2018-08-17T08:54:08.173Z,51.40
2018-08-17T08:56:37.111Z,51.40
2018-08-17T08:59:05.989Z,51.70
2018-08-17T09:01:34.881Z,52.10
2018-08-17T09:04:03.942Z,52.30
2018-08-17T09:06:32.741Z,52.30
2018-08-17T09:09:01.563Z,52.60
2018-08-17T09:11:30.482Z,53.20
2018-08-17T09:13:59.276Z,53.10
2018-08-17T09:16:28.094Z,53.20
2018-08-17T09:18:56.895Z,53.60
2018-08-17T09:21:25.679Z,53.40
2018-08-17T09:23:54.436Z,53.40
2018-08-17T09:26:23.239Z,53.50
2018-08-17T09:28:52.137Z,53.50
2018-08-17T09:31:20.914Z,53.60
2018-08-17T09:33:52.287Z,53.40
2018-08-17T09:36:21.072Z,53.70
2018-08-17T09:38:49.856Z,53.80
2018-08-17T09:41:18.712Z,53.40
2018-08-17T09:43:47.485Z,53.40
2018-08-17T09:46:17.235Z,53.40
2018-08-17T09:48:48.192Z,53.30
2018-08-17T09:51:17.750Z,53.30
2018-08-17T09:53:48.131Z,53.30
2018-08-17T09:56:19.777Z,53.00
2018-08-17T09:58:51.342Z,53.00
2018-08-17T10:01:28.306Z,52.60
2018-08-17T10:04:02.411Z,52.70
2018-08-17T10:07:43.429Z,52.50
2018-08-17T10:10:18.723Z,52.60
2018-08-17T10:12:48.469Z,52.80
2018-08-17T10:15:17.253Z,52.90
2018-08-17T10:17:46.410Z,53.20
2018-08-17T10:20:18.720Z,53.40
2018-08-17T10:22:49.188Z,53.50
2018-08-17T10:25:23.827Z,54.20
2018-08-17T10:27:54.580Z,54.50
2018-08-17T10:30:25.170Z,54.80
2018-08-17T10:33:00.322Z,54.80
2018-08-17T10:35:30.450Z,55.10
2018-08-17T10:38:00.536Z,55.70
2018-08-17T10:40:29.608Z,55.30
2018-08-17T10:43:00.188Z,54.50
2018-08-17T10:45:30.125Z,54.30
2018-08-17T10:47:59.282Z,49.90
2018-08-17T10:50:29.204Z,48.20
2018-08-17T10:53:00.073Z,47.00
2018-08-17T10:55:41.072Z,46.20
2018-08-17T10:58:11.786Z,44.80
2018-08-17T11:00:40.580Z,42.90
2018-08-17T11:03:09.520Z,41.80
2018-08-17T11:05:39.239Z,41.90
2018-08-17T11:08:08.160Z,41.90
2018-08-17T11:10:37.008Z,42.20
2018-08-17T11:13:05.985Z,42.60
2018-08-17T11:15:34.798Z,42.60
2018-08-17T11:18:03.645Z,42.80
2018-08-17T11:20:32.458Z,42.40
2018-08-17T11:23:01.262Z,40.50
2018-08-17T11:25:30.104Z,41.10
2018-08-17T11:27:59.659Z,40.70
2018-08-17T11:30:28.482Z,40.20
2018-08-17T11:32:57.275Z,39.60
2018-08-17T11:35:26.224Z,39.50
2018-08-17T11:37:55.009Z,38.30
2018-08-17T11:40:23.836Z,37.70
2018-08-17T11:42:52.680Z,37.40
2018-08-17T11:45:24.527Z,37.20
2018-08-17T11:50:23.903Z,36.50
2018-08-17T11:52:55.062Z,36.30
2018-08-17T11:55:24.882Z,36.00
2018-08-17T11:57:53.774Z,36.00
2018-08-17T12:00:22.766Z,35.90
2018-08-17T12:02:51.603Z,35.80
2018-08-17T12:05:20.441Z,35.50
2018-08-17T12:07:49.791Z,35.20
2018-08-17T12:10:18.603Z,35.20
2018-08-17T12:12:47.479Z,34.90
2018-08-17T12:15:16.845Z,34.80
2018-08-17T12:20:14.056Z,34.60
2018-08-17T12:22:42.855Z,34.40
2018-08-17T12:25:11.871Z,34.20
2018-08-17T12:27:46.879Z,34.10
2018-08-17T12:30:15.750Z,34.00
2018-08-17T12:35:13.022Z,33.70
2018-08-17T12:37:41.903Z,33.70
2018-08-17T12:40:10.912Z,33.70
2018-08-17T12:42:40.146Z,33.70
2018-08-17T12:45:14.203Z,33.70
2018-08-17T12:47:43.210Z,33.80
2018-08-17T12:50:12.102Z,33.80
2018-08-17T12:52:40.914Z,33.60
2018-08-17T12:55:09.792Z,33.20
2018-08-17T13:00:11.149Z,32.40
2018-08-17T13:02:39.985Z,31.60
2018-08-17T13:05:08.785Z,31.10
2018-08-17T13:07:38.749Z,30.90
2018-08-17T13:10:07.605Z,30.50
2018-08-17T13:12:36.364Z,30.30
2018-08-17T13:15:05.285Z,30.30
2018-08-17T13:17:39.266Z,29.80
2018-08-17T13:20:08.111Z,29.80
2018-08-17T13:22:36.903Z,29.40
2018-08-17T13:25:05.755Z,28.70
2018-08-17T13:27:34.559Z,28.50
2018-08-17T13:30:03.426Z,28.30
2018-08-17T13:35:00.645Z,28.10
2018-08-17T13:37:29.432Z,28.00
2018-08-17T13:39:58.302Z,27.70
2018-08-17T13:42:28.484Z,27.40
2018-08-17T13:44:57.271Z,27.20
2018-08-17T13:47:26.138Z,27.20
2018-08-17T13:49:56.551Z,26.80
2018-08-17T13:52:25.344Z,26.70
2018-08-17T13:54:54.298Z,26.60
2018-08-17T13:57:23.931Z,26.60
2018-08-17T13:59:52.710Z,26.40
2018-08-17T14:02:21.531Z,26.50
2018-08-17T14:07:18.897Z,26.50
2018-08-17T14:09:47.748Z,26.60
2018-08-17T14:12:19.369Z,26.60
2018-08-17T14:14:48.175Z,26.70
2018-08-17T14:19:48.235Z,26.80
2018-08-17T14:22:17.062Z,27.00
2018-08-17T14:27:15.263Z,27.20
2018-08-17T14:29:44.058Z,27.50
2018-08-17T14:34:41.309Z,27.60
2018-08-17T14:37:10.116Z,27.60
2018-08-17T14:39:38.902Z,27.80
2018-08-17T14:42:09.266Z,27.80
2018-08-17T14:44:38.066Z,27.80
2018-08-17T14:47:06.935Z,27.70
2018-08-17T14:49:36.005Z,27.50
2018-08-17T14:52:05.002Z,27.60
2018-08-17T14:54:33.871Z,27.60
2018-08-17T14:57:02.718Z,27.60
2018-08-17T14:59:31.522Z,27.50
2018-08-17T15:02:00.330Z,27.30
2018-08-17T15:04:29.592Z,27.20
2018-08-17T15:06:58.394Z,27.20
2018-08-17T15:09:27.195Z,27.10
2018-08-17T15:11:56.076Z,26.90
2018-08-17T15:16:53.233Z,26.80
2018-08-17T15:21:51.094Z,26.20
2018-08-17T15:24:19.918Z,26.00
2018-08-17T15:26:48.765Z,26.00
2018-08-17T15:29:17.616Z,25.90
2018-08-17T15:31:46.417Z,25.80
2018-08-17T15:34:15.272Z,25.80
2018-08-17T15:36:44.056Z,25.80
2018-08-17T15:39:12.985Z,25.80
2018-08-17T15:41:44.457Z,26.00
2018-08-17T15:44:19.426Z,25.90
2018-08-17T15:49:21.166Z,25.80
2018-08-17T15:51:50.137Z,25.80
2018-08-17T15:54:18.950Z,25.80
2018-08-17T15:56:47.803Z,25.70
2018-08-17T15:59:16.673Z,25.70
2018-08-17T16:01:45.577Z,25.70
2018-08-17T16:04:14.509Z,25.60
2018-08-17T16:09:12.930Z,25.60
2018-08-17T16:11:41.951Z,25.60
2018-08-17T16:14:10.976Z,25.50
2018-08-17T16:16:39.870Z,25.50
2018-08-17T16:19:08.693Z,25.50
2018-08-17T16:21:37.591Z,25.50
2018-08-17T16:26:35.604Z,25.40
2018-08-17T16:29:04.967Z,25.50
2018-08-17T16:31:38.468Z,25.50
2018-08-17T16:34:08.049Z,25.50
2018-08-17T16:36:38.070Z,25.50
2018-08-17T16:39:12.558Z,25.50
2018-08-17T16:41:41.417Z,25.50
2018-08-17T16:44:10.222Z,25.60
2018-08-17T16:46:40.330Z,25.60
2018-08-17T16:49:09.215Z,25.50
2018-08-17T16:51:38.833Z,25.50
2018-08-17T16:54:08.702Z,25.50
2018-08-17T16:56:37.746Z,25.50
2018-08-17T16:59:13.081Z,25.40
2018-08-17T17:01:41.911Z,25.30
2018-08-17T17:04:10.683Z,25.30
2018-08-17T17:06:39.563Z,25.10
2018-08-17T17:09:08.946Z,25.00
2018-08-17T17:11:37.816Z,24.90
2018-08-17T17:14:06.756Z,24.90
2018-08-17T17:16:44.672Z,24.90
2018-08-17T17:19:16.221Z,24.80
2018-08-17T17:21:46.245Z,24.60
2018-08-17T17:26:44.765Z,24.50
2018-08-17T17:29:13.598Z,23.90
2018-08-17T17:31:42.978Z,24.40
2018-08-17T17:34:12.046Z,24.40
2018-08-17T17:36:40.843Z,24.30
2018-08-17T17:39:12.077Z,24.30
2018-08-17T17:41:40.930Z,24.20
2018-08-17T17:44:09.818Z,24.20
2018-08-17T17:46:39.429Z,24.10
2018-08-17T17:49:08.635Z,23.90
2018-08-17T17:54:05.871Z,23.80
2018-08-17T17:56:35.381Z,23.80
2018-08-17T17:59:13.346Z,23.70
2018-08-17T18:01:42.998Z,23.70
2018-08-17T18:04:11.815Z,23.60
2018-08-17T18:06:40.602Z,23.50
2018-08-17T18:09:09.463Z,23.50
2018-08-17T18:11:38.249Z,23.50
2018-08-17T18:14:07.112Z,23.50
2018-08-17T18:16:35.965Z,23.50
2018-08-17T18:19:04.811Z,23.40
2018-08-17T18:21:34.317Z,23.40
2018-08-17T18:24:10.182Z,23.40
2018-08-17T18:26:40.448Z,23.30
2018-08-17T18:29:09.256Z,23.20
2018-08-17T18:31:38.149Z,23.20
2018-08-17T18:34:07.034Z,23.20
2018-08-17T18:36:35.882Z,23.20
2018-08-17T18:44:03.455Z,23.20
2018-08-17T18:46:32.342Z,23.10
2018-08-17T18:49:01.125Z,23.10
2018-08-17T18:51:30.024Z,23.10
2018-08-17T18:53:58.854Z,23.10
2018-08-17T18:56:27.750Z,23.00
2018-08-17T18:58:56.730Z,23.00
2018-08-17T19:01:26.000Z,23.00
2018-08-17T19:03:54.959Z,22.90
2018-08-17T19:06:23.804Z,22.90
2018-08-17T19:08:53.539Z,23.00
2018-08-17T19:13:50.768Z,23.00
2018-08-17T19:16:21.238Z,23.00
2018-08-17T19:18:50.040Z,23.00
2018-08-17T19:23:48.789Z,22.90
2018-08-17T19:26:17.568Z,23.00
2018-08-17T19:28:53.196Z,22.90
2018-08-17T19:31:22.033Z,22.80
2018-08-17T19:33:50.851Z,22.80
2018-08-17T19:36:20.474Z,22.80
2018-08-17T19:38:49.271Z,22.80
2018-08-17T19:41:18.065Z,22.80
2018-08-17T19:43:46.909Z,22.80
2018-08-17T19:46:15.879Z,22.80
2018-08-17T19:48:44.567Z,22.80
2018-08-17T19:51:18.064Z,22.70
2018-08-17T19:53:47.152Z,22.80
2018-08-17T19:56:16.657Z,22.70
2018-08-17T19:58:46.869Z,22.60
2018-08-17T20:01:15.686Z,22.60
2018-08-17T20:03:44.482Z,22.60
2018-08-17T20:06:13.321Z,22.60
2018-08-17T20:08:42.120Z,22.60
2018-08-17T20:11:10.928Z,22.70
2018-08-17T20:13:40.206Z,22.70
2018-08-17T20:16:18.966Z,22.70
2018-08-17T20:18:47.768Z,22.60
2018-08-17T20:21:20.925Z,22.60
2018-08-17T20:23:53.269Z,22.60
2018-08-17T20:26:22.812Z,22.60
2018-08-17T20:28:51.447Z,22.60
2018-08-17T20:31:23.179Z,22.60
2018-08-17T20:33:51.984Z,22.70
2018-08-17T20:36:21.904Z,22.70
2018-08-17T20:38:51.098Z,22.60
2018-08-17T20:41:19.917Z,22.50
2018-08-17T20:43:48.934Z,22.40
2018-08-17T20:46:18.321Z,22.40
2018-08-17T20:48:50.083Z,22.30
2018-08-17T20:51:24.141Z,22.30
2018-08-17T20:53:58.375Z,22.20
2018-08-17T20:56:28.489Z,22.10
2018-08-17T20:58:57.527Z,22.10
2018-08-17T21:01:26.348Z,22.10
2018-08-17T21:03:55.913Z,22.10
2018-08-17T21:06:24.716Z,22.10
2018-08-17T21:08:53.551Z,22.10
2018-08-17T21:11:24.347Z,22.00
2018-08-17T21:13:55.272Z,22.00
2018-08-17T21:16:24.051Z,21.90
2018-08-17T21:18:52.889Z,22.00
2018-08-17T21:21:21.729Z,22.10
2018-08-17T21:23:50.500Z,22.10
2018-08-17T21:26:19.358Z,22.20
2018-08-17T21:28:48.216Z,22.20
2018-08-17T21:31:17.858Z,22.20
2018-08-17T21:33:46.720Z,22.20
2018-08-17T21:36:15.585Z,22.20
2018-08-17T21:38:44.766Z,22.10
2018-08-17T21:41:14.354Z,22.10
2018-08-17T21:43:43.183Z,22.10
2018-08-17T21:46:12.105Z,22.10
2018-08-17T21:48:41.379Z,21.90
2018-08-17T21:51:10.169Z,21.80
2018-08-17T21:53:38.934Z,21.80
2018-08-17T21:56:08.311Z,21.70
2018-08-17T21:58:37.094Z,21.70
2018-08-17T22:01:06.479Z,21.60
2018-08-17T22:03:36.758Z,21.50
2018-08-17T22:06:05.752Z,21.40
2018-08-17T22:08:34.545Z,21.40
2018-08-17T22:11:03.420Z,21.40
2018-08-17T22:13:34.374Z,21.30
2018-08-17T22:16:03.356Z,21.30
2018-08-17T22:21:02.375Z,21.30
2018-08-17T22:26:00.351Z,21.30
2018-08-17T22:28:29.168Z,21.30
2018-08-17T22:30:57.988Z,21.40
2018-08-17T22:33:29.214Z,21.40
2018-08-17T22:35:58.342Z,21.40
2018-08-17T22:38:29.266Z,21.40
2018-08-17T22:40:59.417Z,21.50
2018-08-17T22:43:28.196Z,21.50
2018-08-17T22:45:56.979Z,21.60
2018-08-17T22:48:25.886Z,21.60
2018-08-17T22:50:54.650Z,21.60
2018-08-17T22:53:23.444Z,21.60
2018-08-17T22:55:53.070Z,21.70
2018-08-17T22:58:21.886Z,21.60
2018-08-17T23:00:50.729Z,21.70
2018-08-17T23:03:19.586Z,21.70
2018-08-17T23:05:48.375Z,21.70
2018-08-17T23:08:17.145Z,21.70
2018-08-17T23:10:45.962Z,21.70
2018-08-17T23:13:14.713Z,21.70
2018-08-17T23:15:43.489Z,21.70
2018-08-17T23:18:13.751Z,21.60
2018-08-17T23:20:42.531Z,21.50
2018-08-17T23:23:11.277Z,21.50
2018-08-17T23:25:41.209Z,21.50
2018-08-17T23:28:10.001Z,21.50
2018-08-17T23:30:38.808Z,21.50
2018-08-17T23:33:08.626Z,21.40
2018-08-17T23:35:37.412Z,21.40
2018-08-17T23:38:06.173Z,21.40
2018-08-17T23:40:36.025Z,21.30
2018-08-17T23:43:04.869Z,21.20
2018-08-17T23:45:33.736Z,21.20
2018-08-17T23:48:03.417Z,21.10
2018-08-17T23:50:32.176Z,21.10
2018-08-17T23:53:00.974Z,21.20
2018-08-17T23:55:30.229Z,21.20
2018-08-17T23:57:59.040Z,21.10
